createdAt,value
2023-04-02T00:00:21.467Z,401.00
2023-04-02T00:01:21.512Z,402.00
2023-04-02T00:02:21.633Z,402.00
2023-04-02T00:03:21.728Z,401.00
2023-04-02T00:04:21.700Z,400.00
2023-04-02T00:05:21.748Z,400.00
2023-04-02T00:06:21.800Z,402.00
2023-04-02T00:07:21.853Z,402.00
2023-04-02T00:08:21.898Z,402.00
2023-04-02T00:09:21.953Z,401.00
2023-04-02T00:10:22.007Z,402.00
2023-04-02T00:11:22.062Z,402.00
2023-04-02T00:12:22.117Z,400.00
2023-04-02T00:13:22.170Z,402.00
2023-04-02T00:14:22.218Z,402.00
2023-04-02T00:15:22.271Z,402.00
2023-04-02T00:16:22.370Z,402.00
2023-04-02T00:17:22.405Z,403.00
2023-04-02T00:18:22.470Z,403.00
2023-04-02T00:19:22.488Z,401.00
2023-04-02T00:20:22.561Z,401.00
2023-04-02T00:21:22.603Z,401.00
2023-04-02T00:22:22.672Z,400.00
2023-04-02T00:23:22.720Z,401.00
2023-04-02T00:24:22.766Z,401.00
2023-04-02T00:25:22.837Z,401.00
2023-04-02T00:26:22.888Z,398.00
2023-04-02T00:27:22.955Z,399.00
2023-04-02T00:28:23.024Z,400.00
2023-04-02T00:29:23.078Z,398.00
2023-04-02T00:30:23.128Z,398.00
2023-04-02T00:31:23.427Z,398.00
2023-04-02T00:32:23.247Z,399.00
2023-04-02T00:33:23.310Z,398.00
2023-04-02T00:34:23.350Z,396.00
2023-04-02T00:35:23.419Z,394.00
2023-04-02T00:36:23.542Z,396.00
2023-04-02T00:37:23.516Z,395.00
2023-04-02T00:38:23.573Z,395.00
2023-04-02T00:39:23.626Z,395.00
2023-04-02T00:40:23.697Z,397.00
2023-04-02T00:41:23.752Z,397.00
2023-04-02T00:42:23.810Z,398.00
2023-04-02T00:43:23.861Z,399.00
2023-04-02T00:44:23.920Z,399.00
2023-04-02T00:45:24.021Z,399.00
2023-04-02T00:46:24.069Z,401.00
2023-04-02T00:47:24.085Z,403.00
2023-04-02T00:48:24.158Z,402.00
2023-04-02T00:49:24.209Z,401.00
2023-04-02T00:50:24.263Z,402.00
2023-04-02T00:51:24.324Z,402.00
2023-04-02T00:52:24.393Z,406.00
2023-04-02T00:53:24.427Z,407.00
2023-04-02T00:54:24.479Z,405.00
2023-04-02T00:55:24.532Z,405.00
2023-04-02T00:56:24.596Z,407.00
2023-04-02T00:57:24.676Z,408.00
2023-04-02T00:58:24.730Z,409.00
2023-04-02T00:59:24.848Z,410.00
2023-04-02T01:00:24.912Z,411.00
2023-04-02T01:01:25.036Z,411.00
2023-04-02T01:02:25.045Z,410.00
2023-04-02T01:03:25.060Z,409.00
2023-04-02T01:04:25.068Z,405.00
2023-04-02T01:05:25.096Z,406.00
2023-04-02T01:06:25.092Z,406.00
2023-04-02T01:07:25.119Z,406.00
2023-04-02T01:08:25.129Z,407.00
2023-04-02T01:09:25.166Z,406.00
2023-04-02T01:10:25.175Z,407.00
2023-04-02T01:11:25.186Z,406.00
2023-04-02T01:12:25.198Z,406.00
2023-04-02T01:13:25.237Z,405.00
2023-04-02T01:14:25.232Z,406.00
2023-04-02T01:15:25.244Z,407.00
2023-04-02T01:16:25.394Z,406.00
2023-04-02T01:17:25.332Z,404.00
2023-04-02T01:18:25.324Z,403.00
2023-04-02T01:19:25.379Z,403.00
2023-04-02T01:20:25.429Z,404.00
2023-04-02T01:21:25.504Z,404.00
2023-04-02T01:22:25.550Z,407.00
2023-04-02T01:23:25.610Z,406.00
2023-04-02T01:24:25.666Z,407.00
2023-04-02T01:25:25.728Z,408.00
2023-04-02T01:26:25.779Z,408.00
2023-04-02T01:27:25.834Z,409.00
2023-04-02T01:28:25.880Z,409.00
2023-04-02T01:29:25.946Z,408.00
2023-04-02T01:30:26.012Z,410.00
2023-04-02T01:31:26.112Z,408.00
2023-04-02T01:32:26.158Z,408.00
2023-04-02T01:33:26.191Z,408.00
2023-04-02T01:34:26.771Z,408.00
2023-04-02T01:35:26.309Z,407.00
2023-04-02T01:36:26.349Z,406.00
2023-04-02T01:37:26.420Z,405.00
2023-04-02T01:38:26.472Z,405.00
2023-04-02T01:39:26.515Z,404.00
2023-04-02T01:40:26.557Z,403.00
2023-04-02T01:41:26.635Z,404.00
2023-04-02T01:42:26.734Z,404.00
2023-04-02T01:43:26.719Z,402.00
2023-04-02T01:44:26.788Z,405.00
2023-04-02T01:45:26.847Z,405.00
2023-04-02T01:46:26.980Z,407.00
2023-04-02T01:47:27.005Z,408.00
2023-04-02T01:48:27.027Z,406.00
2023-04-02T01:49:27.103Z,404.00
2023-04-02T01:50:27.128Z,405.00
2023-04-02T01:51:27.197Z,406.00
2023-04-02T01:52:27.247Z,410.00
2023-04-02T01:53:27.293Z,415.00
2023-04-02T01:54:27.359Z,416.00
2023-04-02T01:55:27.424Z,418.00
2023-04-02T01:56:27.467Z,415.00
2023-04-02T01:57:27.588Z,415.00
2023-04-02T01:58:27.574Z,414.00
2023-04-02T01:59:27.630Z,411.00
2023-04-02T02:00:27.735Z,409.00
2023-04-02T02:01:27.757Z,407.00
2023-04-02T02:02:27.892Z,410.00
2023-04-02T02:03:27.863Z,409.00
2023-04-02T02:04:27.919Z,408.00
2023-04-02T02:05:27.987Z,408.00
2023-04-02T02:06:28.033Z,406.00
2023-04-02T02:07:28.100Z,405.00
2023-04-02T02:08:28.135Z,405.00
2023-04-02T02:09:28.191Z,403.00
2023-04-02T02:10:28.251Z,402.00
2023-04-02T02:11:28.310Z,401.00
2023-04-02T02:12:28.431Z,401.00
2023-04-02T02:13:28.406Z,401.00
2023-04-02T02:14:28.478Z,402.00
2023-04-02T02:15:28.546Z,402.00
2023-04-02T02:16:28.647Z,403.00
2023-04-02T02:17:28.707Z,404.00
2023-04-02T02:18:28.734Z,404.00
2023-04-02T02:19:28.799Z,406.00
2023-04-02T02:20:28.834Z,408.00
2023-04-02T02:21:28.959Z,408.00
2023-04-02T02:22:29.001Z,407.00
2023-04-02T02:23:29.037Z,405.00
2023-04-02T02:24:29.099Z,404.00
2023-04-02T02:25:29.170Z,403.00
2023-04-02T02:26:29.208Z,402.00
2023-04-02T02:27:29.277Z,402.00
2023-04-02T02:28:29.327Z,403.00
2023-04-02T02:29:29.373Z,402.00
2023-04-02T02:30:29.448Z,403.00
2023-04-02T02:31:29.513Z,404.00
2023-04-02T02:32:29.632Z,404.00
2023-04-02T02:33:29.629Z,407.00
2023-04-02T02:34:29.673Z,408.00
2023-04-02T02:35:29.721Z,409.00
2023-04-02T02:36:29.786Z,411.00
2023-04-02T02:37:29.849Z,410.00
2023-04-02T02:38:29.903Z,409.00
2023-04-02T02:39:29.952Z,410.00
2023-04-02T02:40:30.041Z,411.00
2023-04-02T02:41:30.075Z,414.00
2023-04-02T02:42:30.152Z,413.00
2023-04-02T02:43:30.191Z,414.00
2023-04-02T02:44:30.235Z,416.00
2023-04-02T02:45:30.291Z,416.00
2023-04-02T02:46:30.398Z,416.00
2023-04-02T02:47:30.448Z,415.00
2023-04-02T02:48:30.478Z,415.00
2023-04-02T02:49:30.545Z,416.00
2023-04-02T02:50:30.575Z,417.00
2023-04-02T02:51:30.648Z,416.00
2023-04-02T02:52:30.698Z,416.00
2023-04-02T02:53:30.755Z,414.00
2023-04-02T02:54:30.809Z,415.00
2023-04-02T02:55:30.889Z,415.00
2023-04-02T02:56:30.949Z,417.00
2023-04-02T02:57:31.191Z,415.00
2023-04-02T02:58:31.046Z,417.00
2023-04-02T02:59:31.118Z,416.00
2023-04-02T03:00:31.199Z,418.00
2023-04-02T03:01:31.276Z,418.00
2023-04-02T03:02:31.430Z,415.00
2023-04-02T03:03:31.540Z,416.00
2023-04-02T03:04:31.459Z,416.00
2023-04-02T03:05:31.497Z,416.00
2023-04-02T03:06:31.564Z,416.00
2023-04-02T03:07:31.614Z,418.00
2023-04-02T03:08:31.672Z,416.00
2023-04-02T03:09:31.753Z,417.00
2023-04-02T03:10:31.796Z,416.00
2023-04-02T03:11:31.858Z,417.00
2023-04-02T03:12:31.939Z,415.00
2023-04-02T03:13:31.999Z,415.00
2023-04-02T03:14:32.056Z,412.00
2023-04-02T03:15:32.144Z,412.00
2023-04-02T03:16:32.179Z,413.00
2023-04-02T03:17:32.265Z,413.00
2023-04-02T03:18:32.294Z,412.00
2023-04-02T03:19:32.383Z,412.00
2023-04-02T03:20:32.433Z,411.00
2023-04-02T03:21:32.483Z,412.00
2023-04-02T03:22:32.542Z,412.00
2023-04-02T03:23:32.604Z,411.00
2023-04-02T03:24:32.701Z,413.00
2023-04-02T03:25:32.973Z,411.00
2023-04-02T03:26:32.823Z,409.00
2023-04-02T03:27:32.872Z,410.00
2023-04-02T03:28:32.917Z,410.00
2023-04-02T03:29:32.991Z,410.00
2023-04-02T03:30:33.054Z,411.00
2023-04-02T03:31:33.152Z,412.00
2023-04-02T03:32:33.198Z,414.00
2023-04-02T03:33:33.241Z,415.00
2023-04-02T03:34:33.294Z,416.00
2023-04-02T03:35:33.595Z,416.00
2023-04-02T03:36:33.403Z,417.00
2023-04-02T03:37:33.467Z,417.00
2023-04-02T03:38:33.532Z,415.00
2023-04-02T03:39:33.607Z,414.00
2023-04-02T03:40:33.661Z,411.00
2023-04-02T03:41:33.711Z,412.00
2023-04-02T03:42:33.779Z,413.00
2023-04-02T03:43:33.843Z,415.00
2023-04-02T03:44:33.899Z,415.00
2023-04-02T03:45:34.308Z,418.00
2023-04-02T03:46:34.088Z,417.00
2023-04-02T03:47:34.168Z,415.00
2023-04-02T03:48:34.145Z,415.00
2023-04-02T03:49:34.206Z,412.00
2023-04-02T03:50:34.275Z,412.00
2023-04-02T03:51:34.354Z,412.00
2023-04-02T03:52:34.411Z,414.00
2023-04-02T03:53:34.449Z,415.00
2023-04-02T03:54:34.529Z,413.00
2023-04-02T03:55:34.739Z,414.00
2023-04-02T03:56:34.644Z,416.00
2023-04-02T03:57:34.722Z,417.00
2023-04-02T03:58:34.821Z,421.00
2023-04-02T03:59:34.854Z,421.00
2023-04-02T04:00:34.873Z,423.00
2023-04-02T04:01:35.004Z,422.00
2023-04-02T04:02:35.067Z,424.00
2023-04-02T04:03:35.066Z,425.00
2023-04-02T04:04:35.162Z,425.00
2023-04-02T04:05:35.419Z,426.00
2023-04-02T04:06:35.267Z,426.00
2023-04-02T04:07:35.324Z,424.00
2023-04-02T04:08:35.397Z,427.00
2023-04-02T04:09:35.492Z,425.00
2023-04-02T04:10:35.514Z,427.00
2023-04-02T04:11:35.564Z,428.00
2023-04-02T04:12:35.634Z,428.00
2023-04-02T04:13:35.702Z,425.00
2023-04-02T04:14:35.747Z,424.00
2023-04-02T04:15:36.027Z,424.00
2023-04-02T04:16:35.931Z,424.00
2023-04-02T04:17:35.964Z,426.00
2023-04-02T04:18:36.016Z,426.00
2023-04-02T04:19:36.077Z,428.00
2023-04-02T04:20:36.137Z,428.00
2023-04-02T04:21:36.209Z,428.00
2023-04-02T04:22:36.268Z,426.00
2023-04-02T04:23:36.340Z,425.00
2023-04-02T04:24:36.398Z,423.00
2023-04-02T04:25:36.634Z,422.00
2023-04-02T04:26:36.524Z,424.00
2023-04-02T04:27:36.577Z,424.00
2023-04-02T04:28:36.639Z,422.00
2023-04-02T04:29:36.691Z,422.00
2023-04-02T04:30:36.758Z,420.00
2023-04-02T04:31:36.868Z,418.00
2023-04-02T04:32:36.946Z,416.00
2023-04-02T04:33:36.968Z,415.00
2023-04-02T04:34:37.023Z,416.00
2023-04-02T04:35:37.411Z,415.00
2023-04-02T04:36:37.152Z,415.00
2023-04-02T04:37:37.238Z,413.00
2023-04-02T04:38:37.287Z,410.00
2023-04-02T04:39:37.354Z,410.00
2023-04-02T04:40:37.418Z,408.00
2023-04-02T04:41:37.489Z,409.00
2023-04-02T04:42:37.540Z,408.00
2023-04-02T04:43:37.592Z,409.00
2023-04-02T04:44:37.677Z,410.00
2023-04-02T04:45:37.846Z,411.00
2023-04-02T04:46:37.785Z,415.00
2023-04-02T04:47:37.943Z,417.00
2023-04-02T04:48:37.918Z,417.00
2023-04-02T04:49:37.967Z,417.00
2023-04-02T04:50:38.057Z,417.00
2023-04-02T04:51:38.094Z,418.00
2023-04-02T04:52:38.184Z,420.00
2023-04-02T04:53:38.236Z,420.00
2023-04-02T04:54:38.297Z,420.00
2023-04-02T04:55:38.387Z,418.00
2023-04-02T04:56:38.408Z,417.00
2023-04-02T04:57:38.472Z,418.00
2023-04-02T04:58:38.549Z,417.00
2023-04-02T04:59:38.621Z,416.00
2023-04-02T05:00:38.673Z,415.00
2023-04-02T05:01:38.770Z,416.00
2023-04-02T05:02:38.808Z,416.00
2023-04-02T05:03:38.839Z,415.00
2023-04-02T05:04:38.923Z,415.00
2023-04-02T05:05:38.956Z,415.00
2023-04-02T05:06:39.046Z,415.00
2023-04-02T05:07:39.093Z,416.00
2023-04-02T05:08:39.155Z,417.00
2023-04-02T05:09:39.198Z,419.00
2023-04-02T05:10:39.294Z,420.00
2023-04-02T05:11:39.336Z,419.00
2023-04-02T05:12:39.398Z,418.00
2023-04-02T05:13:39.441Z,419.00
2023-04-02T05:14:39.514Z,418.00
2023-04-02T05:15:39.739Z,417.00
2023-04-02T05:16:39.854Z,419.00
2023-04-02T05:17:39.728Z,417.00
2023-04-02T05:18:39.756Z,416.00
2023-04-02T05:19:39.830Z,417.00
2023-04-02T05:20:39.872Z,415.00
2023-04-02T05:21:39.952Z,414.00
2023-04-02T05:22:41.394Z,414.00
2023-04-02T05:23:40.080Z,416.00
2023-04-02T05:24:40.127Z,413.00
2023-04-02T05:25:40.191Z,412.00
2023-04-02T05:26:40.239Z,412.00
2023-04-02T05:27:40.310Z,412.00
2023-04-02T05:28:40.377Z,410.00
2023-04-02T05:29:40.440Z,411.00
2023-04-02T05:30:40.532Z,409.00
2023-04-02T05:31:40.595Z,408.00
2023-04-02T05:32:40.649Z,406.00
2023-04-02T05:33:40.637Z,408.00
2023-04-02T05:34:40.693Z,409.00
2023-04-02T05:35:40.784Z,410.00
2023-04-02T05:36:40.800Z,409.00
2023-04-02T05:37:40.864Z,410.00
2023-04-02T05:38:40.936Z,409.00
2023-04-02T05:39:40.993Z,408.00
2023-04-02T05:40:41.082Z,408.00
2023-04-02T05:41:41.113Z,409.00
2023-04-02T05:42:41.193Z,411.00
2023-04-02T05:43:41.232Z,412.00
2023-04-02T05:44:41.293Z,414.00
2023-04-02T05:45:41.350Z,415.00
2023-04-02T05:46:41.457Z,417.00
2023-04-02T05:47:41.874Z,413.00
2023-04-02T05:48:41.570Z,412.00
2023-04-02T05:49:41.622Z,412.00
2023-04-02T05:50:41.666Z,410.00
2023-04-02T05:51:41.735Z,410.00
2023-04-02T05:52:41.800Z,411.00
2023-04-02T05:53:41.873Z,413.00
2023-04-02T05:54:41.923Z,413.00
2023-04-02T05:55:41.985Z,413.00
2023-04-02T05:56:42.039Z,411.00
2023-04-02T05:57:45.836Z,409.00
2023-04-02T05:58:45.565Z,411.00
2023-04-02T05:59:42.082Z,411.00
2023-04-02T06:00:42.109Z,412.00
2023-04-02T06:01:42.144Z,411.00
2023-04-02T06:02:42.139Z,410.00
2023-04-02T06:03:42.140Z,409.00
2023-04-02T06:04:42.051Z,409.00
2023-04-02T06:05:42.080Z,408.00
2023-04-02T06:06:42.045Z,409.00
2023-04-02T06:07:42.035Z,410.00
2023-04-02T06:08:42.051Z,409.00
2023-04-02T06:09:42.022Z,408.00
2023-04-02T06:10:42.027Z,408.00
2023-04-02T06:11:42.025Z,410.00
2023-04-02T06:12:42.051Z,410.00
2023-04-02T06:13:42.014Z,411.00
2023-04-02T06:14:42.010Z,409.00
2023-04-02T06:15:41.992Z,410.00
2023-04-02T06:16:42.013Z,411.00
2023-04-02T06:17:42.032Z,413.00
2023-04-02T06:18:41.952Z,411.00
2023-04-02T06:19:41.994Z,411.00
2023-04-02T06:20:41.965Z,410.00
2023-04-02T06:21:41.945Z,409.00
2023-04-02T06:22:41.960Z,408.00
2023-04-02T06:23:41.961Z,408.00
2023-04-02T06:24:41.927Z,410.00
2023-04-02T06:25:41.917Z,410.00
2023-04-02T06:26:41.914Z,410.00
2023-04-02T06:27:41.917Z,410.00
2023-04-02T06:28:41.908Z,408.00
2023-04-02T06:29:41.889Z,406.00
2023-04-02T06:30:41.943Z,405.00
2023-04-02T06:31:41.879Z,407.00
2023-04-02T06:32:41.938Z,407.00
2023-04-02T06:33:41.881Z,408.00
2023-04-02T06:34:41.864Z,408.00
2023-04-02T06:35:41.921Z,407.00
2023-04-02T06:36:41.916Z,407.00
2023-04-02T06:37:41.944Z,407.00
2023-04-02T06:38:41.969Z,407.00
2023-04-02T06:39:41.993Z,406.00
2023-04-02T06:40:41.999Z,404.00
2023-04-02T06:41:42.018Z,405.00
2023-04-02T06:42:42.056Z,405.00
2023-04-02T06:43:42.069Z,404.00
2023-04-02T06:44:42.095Z,403.00
2023-04-02T06:45:42.169Z,402.00
2023-04-02T06:46:42.103Z,405.00
2023-04-02T06:47:42.189Z,407.00
2023-04-02T06:48:42.115Z,408.00
2023-04-02T06:49:42.126Z,408.00
2023-04-02T06:50:42.160Z,409.00
2023-04-02T06:51:42.135Z,408.00
2023-04-02T06:52:42.136Z,408.00
2023-04-02T06:53:42.133Z,407.00
2023-04-02T06:54:42.175Z,405.00
2023-04-02T06:55:42.130Z,404.00
2023-04-02T06:56:42.115Z,403.00
2023-04-02T06:57:43.040Z,402.00
2023-04-02T06:58:42.149Z,402.00
2023-04-02T06:59:42.185Z,403.00
2023-04-02T07:00:42.184Z,405.00
2023-04-02T07:01:42.257Z,404.00
2023-04-02T07:02:42.304Z,404.00
2023-04-02T07:03:42.306Z,404.00
2023-04-02T07:04:42.424Z,404.00
2023-04-02T07:05:43.190Z,405.00
2023-04-02T07:06:42.488Z,405.00
2023-04-02T07:07:42.536Z,404.00
2023-04-02T07:08:42.603Z,404.00
2023-04-02T07:09:42.677Z,403.00
2023-04-02T07:10:42.723Z,403.00
2023-04-02T07:11:42.777Z,404.00
2023-04-02T07:12:42.852Z,406.00
2023-04-02T07:13:42.904Z,405.00
2023-04-02T07:14:42.931Z,407.00
2023-04-02T07:15:43.036Z,407.00
2023-04-02T07:16:43.033Z,408.00
2023-04-02T07:17:43.102Z,410.00
2023-04-02T07:18:43.090Z,409.00
2023-04-02T07:19:43.142Z,409.00
2023-04-02T07:20:43.167Z,408.00
2023-04-02T07:21:43.207Z,409.00
2023-04-02T07:22:43.234Z,409.00
2023-04-02T07:23:43.259Z,408.00
2023-04-02T07:24:43.268Z,407.00
2023-04-02T07:25:43.285Z,407.00
2023-04-02T07:26:43.321Z,410.00
2023-04-02T07:27:43.342Z,410.00
2023-04-02T07:28:43.332Z,411.00
2023-04-02T07:29:43.347Z,412.00
2023-04-02T07:30:43.330Z,410.00
2023-04-02T07:31:43.449Z,410.00
2023-04-02T07:32:43.364Z,409.00
2023-04-02T07:33:43.366Z,408.00
2023-04-02T07:34:43.383Z,406.00
2023-04-02T07:35:43.426Z,408.00
2023-04-02T07:36:43.423Z,408.00
2023-04-02T07:37:43.430Z,409.00
2023-04-02T07:38:43.445Z,411.00
2023-04-02T07:39:43.528Z,410.00
2023-04-02T07:40:43.565Z,408.00
2023-04-02T07:41:43.590Z,405.00
2023-04-02T07:42:43.616Z,402.00
2023-04-02T07:43:43.593Z,405.00
2023-04-02T07:44:43.616Z,403.00
2023-04-02T07:45:43.614Z,404.00
2023-04-02T07:46:43.632Z,405.00
2023-04-02T07:47:43.615Z,405.00
2023-04-02T07:48:43.617Z,405.00
2023-04-02T07:49:43.600Z,406.00
2023-04-02T07:50:43.592Z,408.00
2023-04-02T07:51:43.612Z,407.00
2023-04-02T07:52:43.625Z,405.00
2023-04-02T07:53:43.608Z,403.00
2023-04-02T07:54:43.610Z,404.00
2023-04-02T07:55:43.623Z,406.00
2023-04-02T07:56:43.692Z,406.00
2023-04-02T07:57:46.377Z,404.00
2023-04-02T07:58:43.784Z,403.00
2023-04-02T07:59:43.717Z,404.00
2023-04-02T08:00:43.709Z,405.00
2023-04-02T08:01:43.776Z,407.00
2023-04-02T08:02:43.745Z,407.00
2023-04-02T08:03:43.858Z,407.00
2023-04-02T08:04:43.709Z,408.00
2023-04-02T08:05:43.702Z,405.00
2023-04-02T08:06:43.715Z,406.00
2023-04-02T08:07:43.680Z,407.00
2023-04-02T08:08:43.687Z,406.00
2023-04-02T08:09:43.654Z,407.00
2023-04-02T08:10:43.666Z,406.00
2023-04-02T08:11:43.671Z,407.00
2023-04-02T08:12:43.636Z,406.00
2023-04-02T08:13:43.650Z,404.00
2023-04-02T08:14:43.651Z,405.00
2023-04-02T08:15:43.614Z,405.00
2023-04-02T08:16:43.629Z,405.00
2023-04-02T08:17:43.684Z,403.00
2023-04-02T08:18:43.614Z,405.00
2023-04-02T08:19:54.254Z,404.00
2023-04-02T08:20:44.598Z,402.00
2023-04-02T08:21:43.596Z,400.00
2023-04-02T08:22:43.584Z,402.00
2023-04-02T08:23:43.624Z,404.00
2023-04-02T08:24:43.645Z,404.00
2023-04-02T08:25:43.554Z,404.00
2023-04-02T08:26:45.479Z,406.00
2023-04-02T08:27:43.544Z,408.00
2023-04-02T08:28:43.563Z,409.00
2023-04-02T08:29:43.544Z,409.00
2023-04-02T08:30:43.597Z,407.00
2023-04-02T08:31:43.585Z,406.00
2023-04-02T08:32:43.669Z,407.00
2023-04-02T08:33:43.655Z,404.00
2023-04-02T08:34:43.694Z,403.00
2023-04-02T08:35:43.756Z,401.00
2023-04-02T08:36:43.784Z,402.00
2023-04-02T08:37:43.798Z,400.00
2023-04-02T08:38:43.863Z,402.00
2023-04-02T08:39:43.863Z,399.00
2023-04-02T08:40:43.892Z,397.00
2023-04-02T08:41:43.910Z,399.00
2023-04-02T08:42:43.951Z,396.00
2023-04-02T08:43:44.024Z,397.00
2023-04-02T08:44:43.976Z,399.00
2023-04-02T08:45:44.040Z,398.00
2023-04-02T08:46:44.034Z,398.00
2023-04-02T08:47:44.076Z,397.00
2023-04-02T08:48:44.103Z,395.00
2023-04-02T08:49:44.101Z,396.00
2023-04-02T08:50:44.124Z,396.00
2023-04-02T08:51:44.145Z,396.00
2023-04-02T08:52:44.168Z,399.00
2023-04-02T08:53:44.176Z,400.00
2023-04-02T08:54:44.200Z,400.00
2023-04-02T08:55:44.291Z,397.00
2023-04-02T08:56:44.257Z,397.00
2023-04-02T08:57:44.260Z,397.00
2023-04-02T08:58:44.294Z,398.00
2023-04-02T08:59:44.327Z,399.00
2023-04-02T09:00:44.322Z,398.00
2023-04-02T09:01:44.459Z,397.00
2023-04-02T09:02:44.394Z,396.00
2023-04-02T09:03:44.393Z,396.00
2023-04-02T09:04:44.430Z,397.00
2023-04-02T09:05:44.450Z,397.00
2023-04-02T09:06:44.505Z,396.00
2023-04-02T09:07:44.532Z,396.00
2023-04-02T09:08:44.563Z,396.00
2023-04-02T09:09:44.596Z,396.00
2023-04-02T09:10:44.619Z,395.00
2023-04-02T09:11:44.660Z,395.00
2023-04-02T09:12:44.708Z,395.00
2023-04-02T09:13:44.749Z,394.00
2023-04-02T09:14:44.780Z,391.00
2023-04-02T09:15:44.944Z,392.00
2023-04-02T09:16:44.830Z,394.00
2023-04-02T09:17:53.639Z,395.00
2023-04-02T09:18:45.923Z,399.00
2023-04-02T09:19:44.882Z,400.00
2023-04-02T09:20:44.866Z,401.00
2023-04-02T09:21:44.852Z,398.00
2023-04-02T09:22:44.841Z,398.00
2023-04-02T09:23:44.837Z,398.00
2023-04-02T09:24:44.840Z,397.00
2023-04-02T09:25:51.054Z,399.00
2023-04-02T09:26:45.841Z,397.00
2023-04-02T09:27:44.816Z,397.00
2023-04-02T09:28:44.813Z,396.00
2023-04-02T09:29:44.838Z,396.00
2023-04-02T09:30:44.819Z,396.00
2023-04-02T09:31:44.815Z,394.00
2023-04-02T09:32:44.880Z,391.00
2023-04-02T09:33:44.817Z,392.00
2023-04-02T09:34:44.806Z,390.00
2023-04-02T09:35:44.878Z,390.00
2023-04-02T09:36:44.769Z,390.00
2023-04-02T09:37:44.769Z,391.00
2023-04-02T09:38:44.836Z,390.00
2023-04-02T09:39:44.935Z,388.00
2023-04-02T09:40:44.907Z,385.00
2023-04-02T09:41:48.200Z,384.00
2023-04-02T09:42:45.971Z,383.00
2023-04-02T09:43:44.970Z,382.00
2023-04-02T09:44:44.939Z,382.00
2023-04-02T09:45:44.940Z,383.00
2023-04-02T09:46:44.991Z,384.00
2023-04-02T09:47:44.972Z,385.00
2023-04-02T09:48:44.920Z,386.00
2023-04-02T09:49:44.948Z,386.00
2023-04-02T09:50:44.915Z,390.00
2023-04-02T09:51:44.899Z,388.00
2023-04-02T09:52:44.915Z,387.00
2023-04-02T09:53:44.960Z,386.00
2023-04-02T09:54:45.023Z,386.00
2023-04-02T09:55:45.088Z,386.00
2023-04-02T09:56:45.134Z,387.00
2023-04-02T09:57:45.203Z,388.00
2023-04-02T09:58:45.259Z,389.00
2023-04-02T09:59:45.309Z,389.00
2023-04-02T10:00:45.589Z,388.00
2023-04-02T10:01:45.452Z,390.00
2023-04-02T10:02:45.529Z,389.00
2023-04-02T10:03:45.562Z,390.00
2023-04-02T10:04:45.666Z,391.00
2023-04-02T10:05:46.022Z,393.00
2023-04-02T10:06:45.726Z,393.00
2023-04-02T10:07:45.787Z,392.00
2023-04-02T10:08:45.822Z,391.00
2023-04-02T10:09:45.856Z,391.00
2023-04-02T10:10:45.901Z,390.00
2023-04-02T10:11:46.848Z,389.00
2023-04-02T10:12:45.984Z,389.00
2023-04-02T10:13:46.023Z,388.00
2023-04-02T10:14:46.049Z,386.00
2023-04-02T10:15:46.053Z,386.00
2023-04-02T10:16:46.149Z,385.00
2023-04-02T10:17:46.136Z,383.00
2023-04-02T10:18:46.100Z,385.00
2023-04-02T10:19:46.099Z,385.00
2023-04-02T10:20:51.198Z,386.00
2023-04-02T10:21:47.080Z,387.00
2023-04-02T10:22:46.058Z,387.00
2023-04-02T10:23:46.100Z,389.00
2023-04-02T10:24:46.064Z,391.00
2023-04-02T10:25:46.051Z,389.00
2023-04-02T10:26:46.047Z,387.00
2023-04-02T10:27:46.046Z,384.00
2023-04-02T10:28:46.063Z,383.00
2023-04-02T10:29:46.036Z,384.00
2023-04-02T10:30:46.085Z,383.00
2023-04-02T10:31:46.014Z,383.00
2023-04-02T10:32:46.007Z,382.00
2023-04-02T10:33:46.005Z,382.00
2023-04-02T10:34:45.993Z,384.00
2023-04-02T10:35:45.994Z,384.00
2023-04-02T10:36:45.985Z,383.00
2023-04-02T10:37:45.976Z,383.00
2023-04-02T10:38:45.954Z,383.00
2023-04-02T10:39:45.974Z,384.00
2023-04-02T10:40:45.958Z,386.00
2023-04-02T10:41:45.936Z,385.00
2023-04-02T10:42:45.931Z,383.00
2023-04-02T10:43:45.944Z,381.00
2023-04-02T10:44:45.949Z,381.00
2023-04-02T10:45:45.938Z,381.00
2023-04-02T10:46:45.924Z,379.00
2023-04-02T10:47:45.937Z,379.00
2023-04-02T10:48:45.891Z,380.00
2023-04-02T10:49:45.932Z,380.00
2023-04-02T10:50:45.891Z,381.00
2023-04-02T10:51:45.908Z,382.00
2023-04-02T10:52:45.920Z,383.00
2023-04-02T10:53:45.870Z,382.00
2023-04-02T10:54:45.877Z,383.00
2023-04-02T10:55:45.858Z,382.00
2023-04-02T10:56:51.177Z,385.00
2023-04-02T10:57:46.867Z,387.00
2023-04-02T10:58:45.837Z,388.00
2023-04-02T10:59:45.852Z,390.00
2023-04-02T11:00:45.873Z,391.00
2023-04-02T11:01:45.882Z,389.00
2023-04-02T11:02:45.924Z,390.00
2023-04-02T11:03:45.931Z,390.00
2023-04-02T11:04:45.808Z,391.00
2023-04-02T11:05:45.788Z,391.00
2023-04-02T11:06:45.783Z,390.00
2023-04-02T11:07:45.787Z,389.00
2023-04-02T11:08:45.766Z,389.00
2023-04-02T11:09:45.784Z,389.00
2023-04-02T11:10:45.791Z,389.00
2023-04-02T11:11:45.760Z,388.00
2023-04-02T11:12:45.747Z,388.00
2023-04-02T11:13:45.735Z,384.00
2023-04-02T11:14:45.739Z,385.00
2023-04-02T11:15:45.767Z,384.00
2023-04-02T11:16:45.819Z,383.00
2023-04-02T11:17:45.786Z,384.00
2023-04-02T11:18:45.793Z,383.00
2023-04-02T11:19:45.854Z,386.00
2023-04-02T11:20:45.940Z,386.00
2023-04-02T11:21:57.869Z,386.00
2023-04-02T11:22:46.988Z,387.00
2023-04-02T11:23:45.970Z,391.00
2023-04-02T11:24:45.973Z,390.00
2023-04-02T11:25:46.000Z,389.00
2023-04-02T11:26:45.967Z,389.00
2023-04-02T11:27:45.940Z,388.00
2023-04-02T11:28:45.952Z,387.00
2023-04-02T11:29:45.941Z,386.00
2023-04-02T11:30:45.949Z,387.00
2023-04-02T11:31:45.994Z,387.00
2023-04-02T11:32:46.052Z,386.00
2023-04-02T11:33:48.083Z,386.00
2023-04-02T11:34:47.052Z,387.00
2023-04-02T11:35:46.119Z,390.00
2023-04-02T11:36:46.013Z,389.00
2023-04-02T11:37:46.028Z,388.00
2023-04-02T11:38:45.992Z,389.00
2023-04-02T11:39:46.002Z,389.00
2023-04-02T11:40:46.018Z,388.00
2023-04-02T11:41:45.974Z,386.00
2023-04-02T11:42:45.985Z,387.00
2023-04-02T11:43:45.969Z,388.00
2023-04-02T11:44:45.963Z,389.00
2023-04-02T11:45:52.835Z,388.00
2023-04-02T11:46:47.042Z,387.00
2023-04-02T11:47:45.982Z,387.00
2023-04-02T11:48:45.947Z,386.00
2023-04-02T11:49:45.937Z,388.00
2023-04-02T11:50:45.954Z,387.00
2023-04-02T11:51:45.935Z,388.00
2023-04-02T11:52:45.916Z,387.00
2023-04-02T11:53:45.899Z,387.00
2023-04-02T11:54:45.901Z,388.00
2023-04-02T11:55:45.883Z,387.00
2023-04-02T11:56:45.877Z,386.00
2023-04-02T11:57:45.880Z,388.00
2023-04-02T11:58:45.873Z,387.00
2023-04-02T11:59:45.855Z,387.00
2023-04-02T12:00:45.872Z,386.00
2023-04-02T12:01:45.911Z,386.00
2023-04-02T12:02:45.914Z,384.00
2023-04-02T12:03:45.835Z,386.00
2023-04-02T12:04:45.888Z,386.00
2023-04-02T12:05:45.930Z,388.00
2023-04-02T12:06:45.856Z,391.00
2023-04-02T12:07:45.865Z,388.00
2023-04-02T12:08:57.013Z,387.00
2023-04-02T12:09:46.882Z,386.00
2023-04-02T12:10:45.898Z,387.00
2023-04-02T12:11:45.858Z,388.00
2023-04-02T12:12:45.865Z,388.00
2023-04-02T12:13:45.863Z,386.00
2023-04-02T12:14:45.865Z,387.00
2023-04-02T12:15:45.853Z,386.00
2023-04-02T12:16:45.892Z,387.00
2023-04-02T12:17:45.861Z,390.00
2023-04-02T12:18:45.813Z,390.00
2023-04-02T12:19:45.835Z,393.00
2023-04-02T12:20:45.795Z,393.00
2023-04-02T12:21:45.789Z,393.00
2023-04-02T12:22:45.786Z,393.00
2023-04-02T12:23:45.792Z,393.00
2023-04-02T12:24:45.798Z,391.00
2023-04-02T12:25:45.791Z,392.00
2023-04-02T12:26:45.801Z,392.00
2023-04-02T12:27:45.854Z,391.00
2023-04-02T12:28:45.869Z,391.00